Řízení letového provozu České republiky
Letiste: LKTB Aktualizace: 21.08.2019 07:00:34  UTC
 METAR LKTB 21.08. 07:00 ...
METAR LKTB 210700Z 33014KT 9999 FEW047 17/12 Q1026 NOSIG RMK REG QNH 1022=
 TAF LKTB 21.08. 05:00 ...
TAF LKTB 210500Z 2106/2212 31008KT 9999 BKN025      TEMPO 2106/2113 35014G24KT 7000 -RA BKN013      BECMG 2115/2117 SCT030      BECMG 2117/2119 03006KT CAVOK      BECMG 2207/2210 07014KT 9999 SCT035=